sensor_id;sensor_type;location;lat;lon;timestamp;pressure;altitude;pressure_sealevel;temperature;humidity
71857;BME280;63344;46.980;28.882;2023-01-29T00:02:16;100952.97;;;-2.04;78.43
71857;BME280;63344;46.980;28.882;2023-01-29T00:04:43;100953.88;;;-2.02;78.31
71857;BME280;63344;46.980;28.882;2023-01-29T00:07:10;100950.44;;;-2.01;77.99
71857;BME280;63344;46.980;28.882;2023-01-29T00:09:37;100954.75;;;-2.03;77.68
71857;BME280;63344;46.980;28.882;2023-01-29T00:12:06;100959.13;;;-2.01;78.07
71857;BME280;63344;46.980;28.882;2023-01-29T00:14:36;100959.13;;;-2.01;77.48
71857;BME280;63344;46.980;28.882;2023-01-29T00:17:03;100943.41;;;-2.07;77.42
71857;BME280;63344;46.980;28.882;2023-01-29T00:19:30;100965.94;;;-2.07;77.60
71857;BME280;63344;46.980;28.882;2023-01-29T00:21:58;100952.03;;;-2.08;78.17
71857;BME280;63344;46.980;28.882;2023-01-29T00:24:25;100953.84;;;-2.05;78.51
71857;BME280;63344;46.980;28.882;2023-01-29T00:26:53;100946.06;;;-2.04;78.43
71857;BME280;63344;46.980;28.882;2023-01-29T00:29:20;100958.25;;;-2.01;78.86
71857;BME280;63344;46.980;28.882;2023-01-29T00:31:48;100947.88;;;-1.98;78.94
71857;BME280;63344;46.980;28.882;2023-01-29T00:34:17;100952.28;;;-1.94;78.51
71857;BME280;63344;46.980;28.882;2023-01-29T00:36:45;100951.41;;;-1.94;78.84
71857;BME280;63344;46.980;28.882;2023-01-29T00:39:12;100961.88;;;-1.91;78.58
71857;BME280;63344;46.980;28.882;2023-01-29T00:41:40;100955.78;;;-1.92;78.46
71857;BME280;63344;46.980;28.882;2023-01-29T00:44:25;100955.81;;;-1.90;78.21
71857;BME280;63344;46.980;28.882;2023-01-29T00:47:11;100961.06;;;-1.89;78.66
71857;BME280;63344;46.980;28.882;2023-01-29T00:50:11;100957.63;;;-1.86;78.64
71857;BME280;63344;46.980;28.882;2023-01-29T00:52:39;100961.09;;;-1.87;78.75
71857;BME280;63344;46.980;28.882;2023-01-29T00:55:08;100968.94;;;-1.86;78.57
71857;BME280;63344;46.980;28.882;2023-01-29T00:57:37;100955.09;;;-1.83;78.37
71857;BME280;63344;46.980;28.882;2023-01-29T01:00:07;100951.63;;;-1.82;78.27
71857;BME280;63344;46.980;28.882;2023-01-29T01:02:35;100969.03;;;-1.79;78.39
71857;BME280;63344;46.980;28.882;2023-01-29T01:05:21;100965.59;;;-1.77;78.51
71857;BME280;63344;46.980;28.882;2023-01-29T01:07:52;100970.81;;;-1.77;78.58
71857;BME280;63344;46.980;28.882;2023-01-29T01:10:30;100960.41;;;-1.77;78.09
71857;BME280;63344;46.980;28.882;2023-01-29T01:13:02;100961.22;;;-1.79;77.91
71857;BME280;63344;46.980;28.882;2023-01-29T01:15:34;100953.41;;;-1.79;78.01
71857;BME280;63344;46.980;28.882;2023-01-29T01:18:03;100961.22;;;-1.78;78.02
71857;BME280;63344;46.980;28.882;2023-01-29T01:20:33;100948.16;;;-1.83;78.26
71857;BME280;63344;46.980;28.882;2023-01-29T01:23:03;100959.56;;;-1.74;78.55
71857;BME280;63344;46.980;28.882;2023-01-29T01:25:30;100954.34;;;-1.74;78.02
71857;BME280;63344;46.980;28.882;2023-01-29T01:27:58;100957.03;;;-1.70;77.74
71857;BME280;63344;46.980;28.882;2023-01-29T01:30:29;100956.09;;;-1.75;77.47
71857;BME280;63344;46.980;28.882;2023-01-29T01:32:56;100954.31;;;-1.76;77.53
71857;BME280;63344;46.980;28.882;2023-01-29T01:35:23;100953.44;;;-1.76;77.35
71857;BME280;63344;46.980;28.882;2023-01-29T01:37:51;100952.63;;;-1.74;77.76
71857;BME280;63344;46.980;28.882;2023-01-29T01:40:20;100945.69;;;-1.75;77.63
71857;BME280;63344;46.980;28.882;2023-01-29T01:42:49;100949.13;;;-1.76;77.08
71857;BME280;63344;46.980;28.882;2023-01-29T01:45:24;100947.41;;;-1.74;76.82
71857;BME280;63344;46.980;28.882;2023-01-29T01:48:00;100949.13;;;-1.77;77.11
71857;BME280;63344;46.980;28.882;2023-01-29T01:50:36;100951.66;;;-1.81;77.06
71857;BME280;63344;46.980;28.882;2023-01-29T01:53:08;100949.06;;;-1.79;77.34
71857;BME280;63344;46.980;28.882;2023-01-29T01:55:41;100961.13;;;-1.84;77.19
71857;BME280;63344;46.980;28.882;2023-01-29T01:58:17;100956.81;;;-1.82;77.60
71857;BME280;63344;46.980;28.882;2023-01-29T02:00:47;100961.22;;;-1.79;77.07
71857;BME280;63344;46.980;28.882;2023-01-29T02:03:14;100962.03;;;-1.82;77.63
71857;BME280;63344;46.980;28.882;2023-01-29T02:06:02;100955.13;;;-1.80;77.61
71857;BME280;63344;46.980;28.882;2023-01-29T02:08:57;100959.53;;;-1.76;77.84
71857;BME280;63344;46.980;28.882;2023-01-29T02:11:44;100962.16;;;-1.74;77.38
71857;BME280;63344;46.980;28.882;2023-01-29T02:14:12;100970.84;;;-1.75;77.24
71857;BME280;63344;46.980;28.882;2023-01-29T02:16:39;100968.25;;;-1.75;77.35
71857;BME280;63344;46.980;28.882;2023-01-29T02:19:22;100958.66;;;-1.76;77.29
71857;BME280;63344;46.980;28.882;2023-01-29T02:25:36;100967.41;;;-1.73;77.21
71857;BME280;63344;46.980;28.882;2023-01-29T02:37:02;100976.84;;;-1.78;77.34
71857;BME280;63344;46.980;28.882;2023-01-29T02:42:52;100978.56;;;-1.82;77.95
71857;BME280;63344;46.980;28.882;2023-01-29T02:45:33;100972.41;;;-1.85;77.74
71857;BME280;63344;46.980;28.882;2023-01-29T02:48:03;100974.97;;;-1.87;78.02
71857;BME280;63344;46.980;28.882;2023-01-29T02:50:36;100980.09;;;-1.91;77.86
71857;BME280;63344;46.980;28.882;2023-01-29T02:53:14;100978.41;;;-1.89;77.48
71857;BME280;63344;46.980;28.882;2023-01-29T03:01:00;100987.91;;;-1.90;77.80
71857;BME280;63344;46.980;28.882;2023-01-29T03:03:36;100983.63;;;-1.88;77.36
71857;BME280;63344;46.980;28.882;2023-01-29T03:11:37;100997.53;;;-1.87;78.00
71857;BME280;63344;46.980;28.882;2023-01-29T03:14:16;100994.06;;;-1.86;77.44
71857;BME280;63344;46.980;28.882;2023-01-29T03:16:49;100992.31;;;-1.87;77.56
71857;BME280;63344;46.980;28.882;2023-01-29T03:19:26;100987.91;;;-1.91;77.51
71857;BME280;63344;46.980;28.882;2023-01-29T03:21:59;100982.63;;;-1.94;77.72
71857;BME280;63344;46.980;28.882;2023-01-29T03:24:38;100990.44;;;-1.94;77.92
71857;BME280;63344;46.980;28.882;2023-01-29T03:27:30;100982.63;;;-1.94;77.87
71857;BME280;63344;46.980;28.882;2023-01-29T03:30:23;100985.31;;;-1.91;78.11
71857;BME280;63344;46.980;28.882;2023-01-29T03:33:11;100992.38;;;-1.86;77.57
71857;BME280;63344;46.980;28.882;2023-01-29T03:35:45;100984.56;;;-1.86;77.63
71857;BME280;63344;46.980;28.882;2023-01-29T03:38:15;100981.94;;;-1.86;77.50
71857;BME280;63344;46.980;28.882;2023-01-29T03:40:55;100996.78;;;-1.82;77.42
71857;BME280;63344;46.980;28.882;2023-01-29T03:43:49;101000.28;;;-1.79;77.54
71857;BME280;63344;46.980;28.882;2023-01-29T03:46:25;100995.06;;;-1.78;76.96
71857;BME280;63344;46.980;28.882;2023-01-29T03:49:17;101000.28;;;-1.78;77.14
71857;BME280;63344;46.980;28.882;2023-01-29T03:51:54;101009.78;;;-1.80;77.25
71857;BME280;63344;46.980;28.882;2023-01-29T03:57:39;101020.31;;;-1.75;76.87
71857;BME280;63344;46.980;28.882;2023-01-29T04:00:31;101019.41;;;-1.76;76.94
71857;BME280;63344;46.980;28.882;2023-01-29T04:03:34;101007.25;;;-1.77;76.29
71857;BME280;63344;46.980;28.882;2023-01-29T04:06:25;101018.50;;;-1.79;76.00
71857;BME280;63344;46.980;28.882;2023-01-29T04:09:01;101029.72;;;-1.82;76.50
71857;BME280;63344;46.980;28.882;2023-01-29T04:11:30;101022.81;;;-1.80;76.43
71857;BME280;63344;46.980;28.882;2023-01-29T04:14:00;101025.47;;;-1.77;76.62
71857;BME280;63344;46.980;28.882;2023-01-29T04:16:34;101025.47;;;-1.77;76.55
71857;BME280;63344;46.980;28.882;2023-01-29T04:19:04;101027.25;;;-1.74;76.41
71857;BME280;63344;46.980;28.882;2023-01-29T04:21:34;101032.47;;;-1.74;76.59
71857;BME280;63344;46.980;28.882;2023-01-29T04:24:05;101015.09;;;-1.75;76.34
71857;BME280;63344;46.980;28.882;2023-01-29T04:40:59;101021.97;;;-1.79;76.09
71857;BME280;63344;46.980;28.882;2023-01-29T04:46:30;101034.84;;;-1.87;75.93
71857;BME280;63344;46.980;28.882;2023-01-29T04:51:48;101021.91;;;-1.82;76.15
71857;BME280;63344;46.980;28.882;2023-01-29T04:57:21;101039.25;;;-1.83;75.91
71857;BME280;63344;46.980;28.882;2023-01-29T05:02:30;101036.66;;;-1.83;76.00
71857;BME280;63344;46.980;28.882;2023-01-29T05:05:02;101040.09;;;-1.85;76.33
71857;BME280;63344;46.980;28.882;2023-01-29T05:07:32;101048.84;;;-1.80;75.89
71857;BME280;63344;46.980;28.882;2023-01-29T05:10:05;101049.75;;;-1.78;76.21
71857;BME280;63344;46.980;28.882;2023-01-29T05:12:35;101051.47;;;-1.78;76.21
71857;BME280;63344;46.980;28.882;2023-01-29T05:15:10;101047.94;;;-1.82;76.36
71857;BME280;63344;46.980;28.882;2023-01-29T05:17:41;101038.28;;;-1.89;76.37
71857;BME280;63344;46.980;28.882;2023-01-29T05:20:10;101054.91;;;-1.81;76.63
71857;BME280;63344;46.980;28.882;2023-01-29T05:22:40;101056.72;;;-1.77;76.59
71857;BME280;63344;46.980;28.882;2023-01-29T05:25:26;101043.69;;;-1.77;76.15
71857;BME280;63344;46.980;28.882;2023-01-29T05:28:02;101055.06;;;-1.73;76.10
71857;BME280;63344;46.980;28.882;2023-01-29T05:30:35;101056.78;;;-1.72;75.78
71857;BME280;63344;46.980;28.882;2023-01-29T05:33:13;101067.34;;;-1.65;75.79
71857;BME280;63344;46.980;28.882;2023-01-29T05:35:41;101073.47;;;-1.63;75.76
71857;BME280;63344;46.980;28.882;2023-01-29T05:38:11;101066.53;;;-1.64;75.66
71857;BME280;63344;46.980;28.882;2023-01-29T05:40:39;101070.94;;;-1.59;75.10
71857;BME280;63344;46.980;28.882;2023-01-29T05:43:16;101073.47;;;-1.63;75.14
71857;BME280;63344;46.980;28.882;2023-01-29T05:45:56;101073.44;;;-1.64;75.25
71857;BME280;63344;46.980;28.882;2023-01-29T05:48:26;101084.81;;;-1.59;74.74
71857;BME280;63344;46.980;28.882;2023-01-29T05:51:01;101083.94;;;-1.59;75.16
71857;BME280;63344;46.980;28.882;2023-01-29T05:53:32;101076.06;;;-1.63;75.54
71857;BME280;63344;46.980;28.882;2023-01-29T05:56:01;101080.38;;;-1.65;75.21
71857;BME280;63344;46.980;28.882;2023-01-29T05:58:33;101087.38;;;-1.61;75.12
71857;BME280;63344;46.980;28.882;2023-01-29T06:01:22;101098.66;;;-1.62;75.32
71857;BME280;63344;46.980;28.882;2023-01-29T06:03:50;101096.91;;;-1.63;75.48
71857;BME280;63344;46.980;28.882;2023-01-29T06:06:17;101098.63;;;-1.63;75.58
71857;BME280;63344;46.980;28.882;2023-01-29T06:09:03;101103.88;;;-1.62;75.55
71857;BME280;63344;46.980;28.882;2023-01-29T06:11:30;101086.47;;;-1.63;75.98
71857;BME280;63344;46.980;28.882;2023-01-29T06:13:58;101102.19;;;-1.59;75.98
71857;BME280;63344;46.980;28.882;2023-01-29T06:16:25;101095.28;;;-1.56;75.70
71857;BME280;63344;46.980;28.882;2023-01-29T06:18:53;101099.72;;;-1.50;76.06
71857;BME280;63344;46.980;28.882;2023-01-29T06:21:20;101098.13;;;-1.44;76.26
71857;BME280;63344;46.980;28.882;2023-01-29T06:23:51;101101.75;;;-1.35;76.25
71857;BME280;63344;46.980;28.882;2023-01-29T06:26:20;101101.75;;;-1.35;75.70
71857;BME280;63344;46.980;28.882;2023-01-29T06:28:48;101092.19;;;-1.35;75.89
71857;BME280;63344;46.980;28.882;2023-01-29T06:31:22;101102.69;;;-1.30;75.62
71857;BME280;63344;46.980;28.882;2023-01-29T06:34:07;101087.88;;;-1.33;75.73
71857;BME280;63344;46.980;28.882;2023-01-29T06:36:34;101086.28;;;-1.25;76.24
71857;BME280;63344;46.980;28.882;2023-01-29T06:39:02;101095.00;;;-1.23;75.59
71857;BME280;63344;46.980;28.882;2023-01-29T06:41:30;101103.72;;;-1.21;75.51
71857;BME280;63344;46.980;28.882;2023-01-29T06:43:57;101082.09;;;-1.15;75.73
71857;BME280;63344;46.980;28.882;2023-01-29T06:46:24;101097.91;;;-1.06;75.40
71857;BME280;63344;46.980;28.882;2023-01-29T06:48:52;101098.81;;;-1.04;75.31
71857;BME280;63344;46.980;28.882;2023-01-29T06:51:19;101103.28;;;-0.95;74.79
71857;BME280;63344;46.980;28.882;2023-01-29T06:53:49;101111.22;;;-0.87;74.92
71857;BME280;63344;46.980;28.882;2023-01-29T06:56:16;101114.75;;;-0.82;74.77
71857;BME280;63344;46.980;28.882;2023-01-29T06:58:46;101099.06;;;-0.87;74.43
71857;BME280;63344;46.980;28.882;2023-01-29T07:01:13;101108.63;;;-0.87;74.37
71857;BME280;63344;46.980;28.882;2023-01-29T07:04:12;101097.19;;;-0.94;75.00
71857;BME280;63344;46.980;28.882;2023-01-29T07:06:50;101109.50;;;-0.87;74.91
71857;BME280;63344;46.980;28.882;2023-01-29T07:09:20;101104.25;;;-0.90;74.95
71857;BME280;63344;46.980;28.882;2023-01-29T07:11:53;101099.09;;;-0.85;74.82
71857;BME280;63344;46.980;28.882;2023-01-29T07:14:20;101121.69;;;-0.86;74.52
71857;BME280;63344;46.980;28.882;2023-01-29T07:16:53;101104.19;;;-0.93;74.88
71857;BME280;63344;46.980;28.882;2023-01-29T07:19:32;101107.63;;;-0.94;74.90
71857;BME280;63344;46.980;28.882;2023-01-29T07:21:59;101123.44;;;-0.85;75.18
71857;BME280;63344;46.980;28.882;2023-01-29T07:24:32;101110.34;;;-0.86;75.26
71857;BME280;63344;46.980;28.882;2023-01-29T07:27:00;101125.28;;;-0.77;75.31
71857;BME280;63344;46.980;28.882;2023-01-29T07:29:27;101127.13;;;-0.72;74.99
71857;BME280;63344;46.980;28.882;2023-01-29T07:31:56;101125.31;;;-0.74;74.97
71857;BME280;63344;46.980;28.882;2023-01-29T07:34:24;101131.53;;;-0.68;75.09
71857;BME280;63344;46.980;28.882;2023-01-29T07:36:52;101129.00;;;-0.60;74.87
71857;BME280;63344;46.980;28.882;2023-01-29T07:39:22;101122.84;;;-0.67;74.57
71857;BME280;63344;46.980;28.882;2023-01-29T07:41:50;101129.94;;;-0.56;74.84
71857;BME280;63344;46.980;28.882;2023-01-29T07:44:18;101142.34;;;-0.42;74.70
71857;BME280;63344;46.980;28.882;2023-01-29T07:46:45;101124.22;;;-0.31;74.63
71857;BME280;63344;46.980;28.882;2023-01-29T07:49:14;101140.88;;;-0.21;73.99
71857;BME280;63344;46.980;28.882;2023-01-29T07:51:42;101131.41;;;-0.13;74.65
71857;BME280;63344;46.980;28.882;2023-01-29T07:54:10;101135.84;;;-0.07;73.03
71857;BME280;63344;46.980;28.882;2023-01-29T07:56:42;101135.84;;;-0.07;73.46
71857;BME280;63344;46.980;28.882;2023-01-29T07:59:19;101121.94;;;-0.08;73.44
71857;BME280;63344;46.980;28.882;2023-01-29T08:01:46;101117.53;;;-0.10;73.08
71857;BME280;63344;46.980;28.882;2023-01-29T08:04:13;101128.06;;;-0.03;73.01
71857;BME280;63344;46.980;28.882;2023-01-29T08:06:43;101132.47;;;0.02;72.41
71857;BME280;63344;46.980;28.882;2023-01-29T08:09:12;101114.34;;;0.14;73.00
71857;BME280;63344;46.980;28.882;2023-01-29T08:11:42;101133.63;;;0.25;72.46
71857;BME280;63344;46.980;28.882;2023-01-29T08:14:12;101117.06;;;0.23;71.52
71857;BME280;63344;46.980;28.882;2023-01-29T08:16:39;101130.09;;;0.22;71.81
71857;BME280;63344;46.980;28.882;2023-01-29T08:19:08;101099.72;;;0.28;71.49
71857;BME280;63344;46.980;28.882;2023-01-29T08:21:37;101124.03;;;0.23;71.16
71857;BME280;63344;46.980;28.882;2023-01-29T08:24:05;101142.28;;;0.21;71.72
71857;BME280;63344;46.980;28.882;2023-01-29T08:26:32;101152.78;;;0.24;72.02
71857;BME280;63344;46.980;28.882;2023-01-29T08:29:07;101139.72;;;0.26;71.75
71857;BME280;63344;46.980;28.882;2023-01-29T08:31:34;101137.03;;;0.16;71.60
71857;BME280;63344;46.980;28.882;2023-01-29T08:34:02;101142.25;;;0.19;72.00
71857;BME280;63344;46.980;28.882;2023-01-29T08:36:29;101148.63;;;0.42;72.20
71857;BME280;63344;46.980;28.882;2023-01-29T08:38:57;101135.63;;;0.48;71.47
71857;BME280;63344;46.980;28.882;2023-01-29T08:41:29;101140.09;;;0.59;71.34
71857;BME280;63344;46.980;28.882;2023-01-29T08:43:57;101115.75;;;0.65;71.00
71857;BME280;63344;46.980;28.882;2023-01-29T08:46:26;101126.31;;;0.74;70.60
71857;BME280;63344;46.980;28.882;2023-01-29T08:48:55;101118.53;;;0.81;70.29
71857;BME280;63344;46.980;28.882;2023-01-29T08:51:24;101132.38;;;0.70;69.64
71857;BME280;63344;46.980;28.882;2023-01-29T08:53:52;101124.63;;;0.79;70.48
71857;BME280;63344;46.980;28.882;2023-01-29T08:56:20;101121.22;;;0.90;69.32
71857;BME280;63344;46.980;28.882;2023-01-29T08:58:50;101122.09;;;0.92;69.64
71857;BME280;63344;46.980;28.882;2023-01-29T09:01:17;101124.72;;;0.90;69.51
71857;BME280;63344;46.980;28.882;2023-01-29T09:03:44;101129.91;;;0.86;69.70
71857;BME280;63344;46.980;28.882;2023-01-29T09:06:13;101132.53;;;0.84;69.67
71857;BME280;63344;46.980;28.882;2023-01-29T09:08:51;101126.38;;;0.81;70.09
71857;BME280;63344;46.980;28.882;2023-01-29T09:11:18;101111.44;;;0.69;70.43
71857;BME280;63344;46.980;28.882;2023-01-29T09:13:46;101119.38;;;0.79;70.77
71857;BME280;63344;46.980;28.882;2023-01-29T09:16:13;101118.50;;;0.76;69.58
71857;BME280;63344;46.980;28.882;2023-01-29T09:18:41;101103.69;;;0.79;68.95
71857;BME280;63344;46.980;28.882;2023-01-29T09:21:08;101098.53;;;0.84;66.10
71857;BME280;63344;46.980;28.882;2023-01-29T09:23:37;101123.78;;;0.82;66.66
71857;BME280;63344;46.980;28.882;2023-01-29T09:26:06;101122.88;;;0.82;67.75
71857;BME280;63344;46.980;28.882;2023-01-29T09:28:34;101109.84;;;0.85;69.00
71857;BME280;63344;46.980;28.882;2023-01-29T09:31:02;101104.75;;;1.00;67.96
71857;BME280;63344;46.980;28.882;2023-01-29T09:33:30;101104.75;;;1.00;68.60
71857;BME280;63344;46.980;28.882;2023-01-29T09:35:58;101115.31;;;1.12;68.41
71857;BME280;63344;46.980;28.882;2023-01-29T09:38:26;101108.38;;;1.16;67.18
71857;BME280;63344;46.980;28.882;2023-01-29T09:46:14;101108.28;;;1.05;67.05
71857;BME280;63344;46.980;28.882;2023-01-29T09:48:45;101103.91;;;1.06;66.40
71857;BME280;63344;46.980;28.882;2023-01-29T09:51:27;101109.09;;;0.96;66.36
71857;BME280;63344;46.980;28.882;2023-01-29T09:54:29;101101.19;;;0.92;66.43
71857;BME280;63344;46.980;28.882;2023-01-29T09:57:15;101127.31;;;0.89;66.79
71857;BME280;63344;46.980;28.882;2023-01-29T09:59:46;101118.59;;;0.87;66.57
71857;BME280;63344;46.980;28.882;2023-01-29T10:02:39;101113.44;;;0.96;66.43
71857;BME280;63344;46.980;28.882;2023-01-29T10:05:54;101087.31;;;1.01;66.54
71857;BME280;63344;46.980;28.882;2023-01-29T10:11:41;101116.88;;;0.93;67.48
71857;BME280;63344;46.980;28.882;2023-01-29T10:14:46;101118.72;;;1.02;67.98
71857;BME280;63344;46.980;28.882;2023-01-29T10:17:35;101103.13;;;1.14;67.29
71857;BME280;63344;46.980;28.882;2023-01-29T10:20:37;101117.91;;;1.09;67.75
71857;BME280;63344;46.980;28.882;2023-01-29T10:23:23;101114.44;;;1.10;67.87
71857;BME280;63344;46.980;28.882;2023-01-29T10:25:52;101105.63;;;1.04;67.20
71857;BME280;63344;46.980;28.882;2023-01-29T10:28:37;101091.66;;;0.94;66.83
71857;BME280;63344;46.980;28.882;2023-01-29T10:31:16;101112.50;;;0.89;67.40
71857;BME280;63344;46.980;28.882;2023-01-29T10:33:53;101112.47;;;0.85;68.19
71857;BME280;63344;46.980;28.882;2023-01-29T10:36:36;101099.41;;;0.88;68.86
71857;BME280;63344;46.980;28.882;2023-01-29T10:39:04;101098.69;;;1.04;69.09
71857;BME280;63344;46.980;28.882;2023-01-29T10:44:30;101095.19;;;1.05;67.29
71857;BME280;63344;46.980;28.882;2023-01-29T10:50:46;101093.34;;;0.93;67.24
71857;BME280;63344;46.980;28.882;2023-01-29T10:53:45;101085.56;;;1.01;68.01
71857;BME280;63344;46.980;28.882;2023-01-29T10:58:52;101087.31;;;0.96;66.91
71857;BME280;63344;46.980;28.882;2023-01-29T11:01:21;101055.88;;;0.93;66.34
71857;BME280;63344;46.980;28.882;2023-01-29T11:03:59;101068.94;;;0.91;67.27
71857;BME280;63344;46.980;28.882;2023-01-29T11:06:34;101082.19;;;1.13;68.03
71857;BME280;63344;46.980;28.882;2023-01-29T11:09:17;101074.34;;;1.17;67.23
71857;BME280;63344;46.980;28.882;2023-01-29T11:17:22;101060.47;;;1.28;65.14
71857;BME280;63344;46.980;28.882;2023-01-29T11:20:28;101057.84;;;1.28;64.85
71857;BME280;63344;46.980;28.882;2023-01-29T11:23:33;101068.38;;;1.34;65.59
71857;BME280;63344;46.980;28.882;2023-01-29T11:26:01;101061.44;;;1.42;65.47
71857;BME280;63344;46.980;28.882;2023-01-29T11:28:49;101057.19;;;1.58;65.77
71857;BME280;63344;46.980;28.882;2023-01-29T11:31:36;101071.13;;;1.58;64.92
71857;BME280;63344;46.980;28.882;2023-01-29T11:34:15;101062.41;;;1.59;65.02
71857;BME280;63344;46.980;28.882;2023-01-29T11:37:14;101060.59;;;1.45;64.46
71857;BME280;63344;46.980;28.882;2023-01-29T11:39:43;101061.44;;;1.42;65.17
71857;BME280;63344;46.980;28.882;2023-01-29T11:42:20;101064.03;;;1.39;65.61
71857;BME280;63344;46.980;28.882;2023-01-29T11:44:48;101062.31;;;1.43;65.33
71857;BME280;63344;46.980;28.882;2023-01-29T11:47:17;101066.72;;;1.51;64.90
71857;BME280;63344;46.980;28.882;2023-01-29T11:49:46;101058.81;;;1.41;64.91
71857;BME280;63344;46.980;28.882;2023-01-29T11:52:16;101050.91;;;1.33;65.89
71857;BME280;63344;46.980;28.882;2023-01-29T11:54:52;101046.50;;;1.26;65.24
71857;BME280;63344;46.980;28.882;2023-01-29T11:59:55;101063.09;;;1.25;65.41
71857;BME280;63344;46.980;28.882;2023-01-29T12:02:35;101059.59;;;1.24;66.20
71857;BME280;63344;46.980;28.882;2023-01-29T12:05:15;101054.34;;;1.26;67.15
71857;BME280;63344;46.980;28.882;2023-01-29T12:07:45;101063.13;;;1.31;66.94
71857;BME280;63344;46.980;28.882;2023-01-29T12:10:32;101059.63;;;1.33;67.39
71857;BME280;63344;46.980;28.882;2023-01-29T12:15:39;101055.31;;;1.37;67.08
71857;BME280;63344;46.980;28.882;2023-01-29T12:18:40;101065.81;;;1.45;66.68
71857;BME280;63344;46.980;28.882;2023-01-29T12:21:19;101047.50;;;1.45;66.19
71857;BME280;63344;46.980;28.882;2023-01-29T12:26:42;101049.28;;;1.50;66.09
71857;BME280;63344;46.980;28.882;2023-01-29T12:29:24;101071.09;;;1.55;66.31
71857;BME280;63344;46.980;28.882;2023-01-29T12:32:01;101075.47;;;1.55;66.52
71857;BME280;63344;46.980;28.882;2023-01-29T12:34:54;101068.47;;;1.52;65.91
71857;BME280;63344;46.980;28.882;2023-01-29T12:37:58;101068.41;;;1.40;65.93
71857;BME280;63344;46.980;28.882;2023-01-29T12:40:28;101060.53;;;1.32;66.22
71857;BME280;63344;46.980;28.882;2023-01-29T12:43:04;101047.47;;;1.37;66.97
71857;BME280;63344;46.980;28.882;2023-01-29T12:45:35;101073.66;;;1.43;66.24
71857;BME280;63344;46.980;28.882;2023-01-29T12:48:12;101063.19;;;1.40;66.35
71857;BME280;63344;46.980;28.882;2023-01-29T12:50:40;101057.06;;;1.41;66.12
71857;BME280;63344;46.980;28.882;2023-01-29T12:56:02;101064.97;;;1.53;65.08
71857;BME280;63344;46.980;28.882;2023-01-29T12:58:33;101075.44;;;1.49;65.34
71857;BME280;63344;46.980;28.882;2023-01-29T13:01:08;101050.97;;;1.39;65.33
71857;BME280;63344;46.980;28.882;2023-01-29T13:03:50;101062.25;;;1.33;65.23
71857;BME280;63344;46.980;28.882;2023-01-29T13:06:27;101058.75;;;1.28;65.10
71857;BME280;63344;46.980;28.882;2023-01-29T13:09:02;101069.16;;;1.24;65.43
71857;BME280;63344;46.980;28.882;2023-01-29T13:14:20;101070.16;;;1.41;66.12
71857;BME280;63344;46.980;28.882;2023-01-29T13:17:05;101056.19;;;1.39;65.56
71857;BME280;63344;46.980;28.882;2023-01-29T13:19:40;101052.75;;;1.46;65.61
71857;BME280;63344;46.980;28.882;2023-01-29T13:22:18;101064.97;;;1.50;65.57
71857;BME280;63344;46.980;28.882;2023-01-29T13:24:50;101065.00;;;1.52;65.64
71857;BME280;63344;46.980;28.882;2023-01-29T13:27:32;101067.63;;;1.56;65.47
71857;BME280;63344;46.980;28.882;2023-01-29T13:30:02;101060.63;;;1.55;65.90
71857;BME280;63344;46.980;28.882;2023-01-29T13:32:31;101068.44;;;1.49;66.00
71857;BME280;63344;46.980;28.882;2023-01-29T13:35:04;101075.41;;;1.44;66.61
71857;BME280;63344;46.980;28.882;2023-01-29T13:37:34;101070.16;;;1.38;67.10
71857;BME280;63344;46.980;28.882;2023-01-29T13:40:06;101064.88;;;1.35;67.55
71857;BME280;63344;46.980;28.882;2023-01-29T13:42:46;101068.34;;;1.26;68.26
71857;BME280;63344;46.980;28.882;2023-01-29T13:45:23;101063.84;;;1.10;68.12
71857;BME280;63344;46.980;28.882;2023-01-29T13:47:51;101064.63;;;0.95;68.91
71857;BME280;63344;46.980;28.882;2023-01-29T13:50:35;101068.97;;;0.93;69.69
71857;BME280;63344;46.980;28.882;2023-01-29T13:53:06;101072.41;;;0.92;70.36
71857;BME280;63344;46.980;28.882;2023-01-29T13:55:38;101082.06;;;0.94;70.35
71857;BME280;63344;46.980;28.882;2023-01-29T14:01:03;101080.28;;;0.90;70.92
71857;BME280;63344;46.980;28.882;2023-01-29T14:03:42;101089.03;;;0.94;71.64
71857;BME280;63344;46.980;28.882;2023-01-29T14:06:37;101094.19;;;0.89;71.21
71857;BME280;63344;46.980;28.882;2023-01-29T14:17:27;101096.78;;;0.85;71.62
71857;BME280;63344;46.980;28.882;2023-01-29T14:20:18;101102.91;;;0.87;72.01
71857;BME280;63344;46.980;28.882;2023-01-29T14:23:00;101094.16;;;0.85;72.04
71857;BME280;63344;46.980;28.882;2023-01-29T14:25:49;101094.13;;;0.78;71.52
71857;BME280;63344;46.980;28.882;2023-01-29T14:28:25;101088.91;;;0.82;71.61
71857;BME280;63344;46.980;28.882;2023-01-29T14:30:55;101097.53;;;0.73;71.59
71857;BME280;63344;46.980;28.882;2023-01-29T14:33:38;101085.28;;;0.64;72.04
71857;BME280;63344;46.980;28.882;2023-01-29T14:36:12;101087.84;;;0.58;72.21
71857;BME280;63344;46.980;28.882;2023-01-29T14:38:48;101093.06;;;0.59;72.21
71857;BME280;63344;46.980;28.882;2023-01-29T14:41:29;101093.03;;;0.56;72.70
71857;BME280;63344;46.980;28.882;2023-01-29T14:50:00;101106.19;;;0.64;72.68
71857;BME280;63344;46.980;28.882;2023-01-29T14:52:39;101103.63;;;0.70;72.75
71857;BME280;63344;46.980;28.882;2023-01-29T14:55:18;101094.00;;;0.66;72.72
71857;BME280;63344;46.980;28.882;2023-01-29T14:57:47;101102.78;;;0.73;72.89
71857;BME280;63344;46.980;28.882;2023-01-29T15:00:26;101105.44;;;0.76;72.75
71857;BME280;63344;46.980;28.882;2023-01-29T15:02:54;101110.66;;;0.76;72.48
71857;BME280;63344;46.980;28.882;2023-01-29T15:05:31;101113.28;;;0.76;72.38
71857;BME280;63344;46.980;28.882;2023-01-29T15:08:22;101113.19;;;0.70;72.17
71857;BME280;63344;46.980;28.882;2023-01-29T15:11:02;101107.97;;;0.70;72.03
71857;BME280;63344;46.980;28.882;2023-01-29T15:14:01;101118.41;;;0.70;72.53